sensor_id;sensor_type;location;lat;lon;timestamp;P1;durP1;ratioP1;P2;durP2;ratioP2
59169;SDS011;52474;52.236;5.114;2023-03-13T00:01:22;27.23;;;5.88;;
59169;SDS011;52474;52.236;5.114;2023-03-13T00:03:50;26.45;;;5.68;;
59169;SDS011;52474;52.236;5.114;2023-03-13T00:06:16;26.15;;;5.00;;
59169;SDS011;52474;52.236;5.114;2023-03-13T00:08:42;25.17;;;5.57;;
59169;SDS011;52474;52.236;5.114;2023-03-13T00:11:09;19.10;;;4.85;;
59169;SDS011;52474;52.236;5.114;2023-03-13T00:13:37;18.17;;;4.50;;
59169;SDS011;52474;52.236;5.114;2023-03-13T00:16:06;22.48;;;4.75;;
59169;SDS011;52474;52.236;5.114;2023-03-13T00:18:34;23.63;;;4.47;;
59169;SDS011;52474;52.236;5.114;2023-03-13T00:21:01;24.23;;;4.88;;
59169;SDS011;52474;52.236;5.114;2023-03-13T00:23:28;23.25;;;5.63;;
59169;SDS011;52474;52.236;5.114;2023-03-13T00:25:57;19.58;;;5.03;;
59169;SDS011;52474;52.236;5.114;2023-03-13T00:28:26;24.70;;;4.25;;
59169;SDS011;52474;52.236;5.114;2023-03-13T00:31:03;27.02;;;5.55;;
59169;SDS011;52474;52.236;5.114;2023-03-13T00:33:43;29.00;;;5.57;;
59169;SDS011;52474;52.236;5.114;2023-03-13T00:38:39;20.45;;;5.18;;
59169;SDS011;52474;52.236;5.114;2023-03-13T00:43:32;22.02;;;5.63;;
59169;SDS011;52474;52.236;5.114;2023-03-13T00:45:59;22.30;;;5.65;;
59169;SDS011;52474;52.236;5.114;2023-03-13T00:48:25;24.58;;;6.88;;
59169;SDS011;52474;52.236;5.114;2023-03-13T00:50:52;29.23;;;7.57;;
59169;SDS011;52474;52.236;5.114;2023-03-13T00:53:18;26.33;;;6.50;;
59169;SDS011;52474;52.236;5.114;2023-03-13T00:58:43;22.55;;;6.45;;
59169;SDS011;52474;52.236;5.114;2023-03-13T01:03:50;17.70;;;6.25;;
59169;SDS011;52474;52.236;5.114;2023-03-13T01:06:18;20.85;;;7.85;;
59169;SDS011;52474;52.236;5.114;2023-03-13T01:08:46;31.23;;;8.15;;
59169;SDS011;52474;52.236;5.114;2023-03-13T01:11:14;23.88;;;7.95;;
59169;SDS011;52474;52.236;5.114;2023-03-13T01:13:41;21.33;;;9.57;;
59169;SDS011;52474;52.236;5.114;2023-03-13T01:16:08;20.40;;;6.68;;
59169;SDS011;52474;52.236;5.114;2023-03-13T01:18:36;21.23;;;7.45;;
59169;SDS011;52474;52.236;5.114;2023-03-13T01:21:03;21.55;;;6.93;;
59169;SDS011;52474;52.236;5.114;2023-03-13T01:23:30;26.02;;;6.43;;
59169;SDS011;52474;52.236;5.114;2023-03-13T01:25:56;20.50;;;6.97;;
59169;SDS011;52474;52.236;5.114;2023-03-13T01:28:22;20.85;;;6.53;;
59169;SDS011;52474;52.236;5.114;2023-03-13T01:30:50;16.40;;;7.90;;
59169;SDS011;52474;52.236;5.114;2023-03-13T01:33:16;20.75;;;6.65;;
59169;SDS011;52474;52.236;5.114;2023-03-13T01:35:42;12.73;;;5.75;;
59169;SDS011;52474;52.236;5.114;2023-03-13T01:38:08;16.35;;;6.45;;
59169;SDS011;52474;52.236;5.114;2023-03-13T01:40:41;25.13;;;6.82;;
59169;SDS011;52474;52.236;5.114;2023-03-13T01:43:27;20.73;;;6.35;;
59169;SDS011;52474;52.236;5.114;2023-03-13T01:51:27;19.40;;;7.25;;
59169;SDS011;52474;52.236;5.114;2023-03-13T01:56:36;15.75;;;7.18;;
59169;SDS011;52474;52.236;5.114;2023-03-13T01:59:08;23.88;;;7.63;;
59169;SDS011;52474;52.236;5.114;2023-03-13T02:01:38;19.08;;;7.85;;
59169;SDS011;52474;52.236;5.114;2023-03-13T02:04:06;21.52;;;9.98;;
59169;SDS011;52474;52.236;5.114;2023-03-13T02:06:33;20.10;;;8.38;;
59169;SDS011;52474;52.236;5.114;2023-03-13T02:09:02;28.95;;;9.95;;
59169;SDS011;52474;52.236;5.114;2023-03-13T02:11:47;20.42;;;8.10;;
59169;SDS011;52474;52.236;5.114;2023-03-13T02:14:18;19.35;;;8.52;;
59169;SDS011;52474;52.236;5.114;2023-03-13T02:19:18;26.25;;;10.50;;
59169;SDS011;52474;52.236;5.114;2023-03-13T02:22:13;29.63;;;12.00;;
59169;SDS011;52474;52.236;5.114;2023-03-13T02:27:38;25.00;;;10.98;;
59169;SDS011;52474;52.236;5.114;2023-03-13T02:30:06;22.17;;;10.05;;
59169;SDS011;52474;52.236;5.114;2023-03-13T02:32:34;27.55;;;11.90;;
59169;SDS011;52474;52.236;5.114;2023-03-13T02:35:02;28.60;;;12.23;;
59169;SDS011;52474;52.236;5.114;2023-03-13T02:37:32;28.08;;;12.65;;
59169;SDS011;52474;52.236;5.114;2023-03-13T02:39:59;29.48;;;11.73;;
59169;SDS011;52474;52.236;5.114;2023-03-13T02:42:27;29.13;;;13.57;;
59169;SDS011;52474;52.236;5.114;2023-03-13T02:44:54;30.60;;;13.15;;
59169;SDS011;52474;52.236;5.114;2023-03-13T02:47:21;28.52;;;13.52;;
59169;SDS011;52474;52.236;5.114;2023-03-13T02:49:48;31.50;;;14.30;;
59169;SDS011;52474;52.236;5.114;2023-03-13T02:52:32;34.53;;;13.82;;
59169;SDS011;52474;52.236;5.114;2023-03-13T02:55:30;31.35;;;15.77;;
59169;SDS011;52474;52.236;5.114;2023-03-13T02:58:04;31.70;;;14.68;;
59169;SDS011;52474;52.236;5.114;2023-03-13T03:00:34;24.80;;;12.13;;
59169;SDS011;52474;52.236;5.114;2023-03-13T03:03:00;23.77;;;10.63;;
59169;SDS011;52474;52.236;5.114;2023-03-13T03:05:26;26.05;;;13.27;;
59169;SDS011;52474;52.236;5.114;2023-03-13T03:07:52;27.02;;;11.27;;
59169;SDS011;52474;52.236;5.114;2023-03-13T03:10:18;26.80;;;11.38;;
59169;SDS011;52474;52.236;5.114;2023-03-13T03:12:44;24.92;;;10.65;;
59169;SDS011;52474;52.236;5.114;2023-03-13T03:15:10;22.55;;;12.13;;
59169;SDS011;52474;52.236;5.114;2023-03-13T03:17:41;26.90;;;11.70;;
59169;SDS011;52474;52.236;5.114;2023-03-13T03:20:08;19.92;;;10.10;;
59169;SDS011;52474;52.236;5.114;2023-03-13T03:22:37;26.90;;;10.20;;
59169;SDS011;52474;52.236;5.114;2023-03-13T03:25:05;21.13;;;10.88;;
59169;SDS011;52474;52.236;5.114;2023-03-13T03:27:32;22.58;;;9.38;;
59169;SDS011;52474;52.236;5.114;2023-03-13T03:29:57;20.33;;;10.43;;
59169;SDS011;52474;52.236;5.114;2023-03-13T03:32:23;20.85;;;9.50;;
59169;SDS011;52474;52.236;5.114;2023-03-13T03:34:53;19.40;;;10.50;;
59169;SDS011;52474;52.236;5.114;2023-03-13T03:37:18;16.45;;;9.18;;
59169;SDS011;52474;52.236;5.114;2023-03-13T03:39:44;19.13;;;8.73;;
59169;SDS011;52474;52.236;5.114;2023-03-13T03:42:10;19.17;;;9.32;;
59169;SDS011;52474;52.236;5.114;2023-03-13T03:44:37;14.77;;;9.38;;
59169;SDS011;52474;52.236;5.114;2023-03-13T03:47:03;15.68;;;7.88;;
59169;SDS011;52474;52.236;5.114;2023-03-13T03:51:59;17.38;;;6.85;;
59169;SDS011;52474;52.236;5.114;2023-03-13T03:54:30;14.45;;;7.20;;
59169;SDS011;52474;52.236;5.114;2023-03-13T03:56:57;14.35;;;7.65;;
59169;SDS011;52474;52.236;5.114;2023-03-13T03:59:23;15.90;;;7.60;;
59169;SDS011;52474;52.236;5.114;2023-03-13T04:01:55;14.63;;;8.23;;
59169;SDS011;52474;52.236;5.114;2023-03-13T04:04:23;15.90;;;6.63;;
59169;SDS011;52474;52.236;5.114;2023-03-13T04:06:55;16.70;;;7.80;;
59169;SDS011;52474;52.236;5.114;2023-03-13T04:09:22;15.85;;;7.70;;
59169;SDS011;52474;52.236;5.114;2023-03-13T04:11:48;15.80;;;6.63;;
59169;SDS011;52474;52.236;5.114;2023-03-13T04:14:14;15.20;;;7.00;;
59169;SDS011;52474;52.236;5.114;2023-03-13T04:16:46;12.40;;;7.00;;
59169;SDS011;52474;52.236;5.114;2023-03-13T04:22:51;14.20;;;7.10;;
59169;SDS011;52474;52.236;5.114;2023-03-13T04:25:18;12.68;;;6.47;;
59169;SDS011;52474;52.236;5.114;2023-03-13T04:27:46;12.75;;;5.57;;
59169;SDS011;52474;52.236;5.114;2023-03-13T04:30:12;10.70;;;6.25;;
59169;SDS011;52474;52.236;5.114;2023-03-13T04:32:43;12.27;;;6.13;;
59169;SDS011;52474;52.236;5.114;2023-03-13T04:35:27;15.73;;;6.78;;
59169;SDS011;52474;52.236;5.114;2023-03-13T04:38:14;14.40;;;7.55;;
59169;SDS011;52474;52.236;5.114;2023-03-13T04:41:18;12.50;;;6.00;;
59169;SDS011;52474;52.236;5.114;2023-03-13T04:44:10;12.80;;;6.85;;
59169;SDS011;52474;52.236;5.114;2023-03-13T04:47:03;15.45;;;6.35;;
59169;SDS011;52474;52.236;5.114;2023-03-13T04:49:38;15.02;;;6.32;;
59169;SDS011;52474;52.236;5.114;2023-03-13T04:52:10;13.98;;;6.63;;
59169;SDS011;52474;52.236;5.114;2023-03-13T04:54:55;13.85;;;5.55;;
59169;SDS011;52474;52.236;5.114;2023-03-13T04:57:42;13.90;;;6.78;;
59169;SDS011;52474;52.236;5.114;2023-03-13T05:00:30;11.45;;;6.20;;
59169;SDS011;52474;52.236;5.114;2023-03-13T05:03:14;13.18;;;6.70;;
59169;SDS011;52474;52.236;5.114;2023-03-13T05:06:01;15.43;;;6.43;;
59169;SDS011;52474;52.236;5.114;2023-03-13T05:08:45;11.32;;;6.40;;
59169;SDS011;52474;52.236;5.114;2023-03-13T05:11:28;14.80;;;6.30;;
59169;SDS011;52474;52.236;5.114;2023-03-13T05:14:26;11.43;;;6.38;;
59169;SDS011;52474;52.236;5.114;2023-03-13T05:17:24;10.63;;;5.28;;
59169;SDS011;52474;52.236;5.114;2023-03-13T05:20:04;12.32;;;5.55;;
59169;SDS011;52474;52.236;5.114;2023-03-13T05:22:56;13.85;;;6.35;;
59169;SDS011;52474;52.236;5.114;2023-03-13T05:25:50;12.40;;;6.25;;
59169;SDS011;52474;52.236;5.114;2023-03-13T05:28:36;11.50;;;5.45;;
59169;SDS011;52474;52.236;5.114;2023-03-13T05:31:18;13.75;;;5.07;;
59169;SDS011;52474;52.236;5.114;2023-03-13T05:34:02;11.07;;;4.90;;
59169;SDS011;52474;52.236;5.114;2023-03-13T05:36:54;8.65;;;4.25;;
59169;SDS011;52474;52.236;5.114;2023-03-13T05:39:58;8.38;;;4.30;;
59169;SDS011;52474;52.236;5.114;2023-03-13T05:42:24;7.85;;;4.20;;
59169;SDS011;52474;52.236;5.114;2023-03-13T05:45:11;7.72;;;4.15;;
59169;SDS011;52474;52.236;5.114;2023-03-13T05:47:56;8.63;;;4.75;;
59169;SDS011;52474;52.236;5.114;2023-03-13T05:50:35;17.65;;;5.45;;
59169;SDS011;52474;52.236;5.114;2023-03-13T05:53:19;10.13;;;4.43;;
59169;SDS011;52474;52.236;5.114;2023-03-13T05:56:03;9.02;;;4.60;;
59169;SDS011;52474;52.236;5.114;2023-03-13T05:59:04;10.35;;;3.88;;
59169;SDS011;52474;52.236;5.114;2023-03-13T06:01:48;14.15;;;4.47;;
59169;SDS011;52474;52.236;5.114;2023-03-13T06:04:26;7.93;;;4.53;;
59169;SDS011;52474;52.236;5.114;2023-03-13T06:06:52;13.00;;;4.43;;
59169;SDS011;52474;52.236;5.114;2023-03-13T06:09:20;6.72;;;2.97;;
59169;SDS011;52474;52.236;5.114;2023-03-13T06:11:47;10.23;;;4.05;;
59169;SDS011;52474;52.236;5.114;2023-03-13T06:14:13;9.88;;;4.32;;
59169;SDS011;52474;52.236;5.114;2023-03-13T06:16:46;7.07;;;3.38;;
59169;SDS011;52474;52.236;5.114;2023-03-13T06:19:18;8.05;;;3.60;;
59169;SDS011;52474;52.236;5.114;2023-03-13T06:21:44;11.55;;;3.83;;
59169;SDS011;52474;52.236;5.114;2023-03-13T06:24:09;11.23;;;4.00;;
59169;SDS011;52474;52.236;5.114;2023-03-13T06:26:35;6.15;;;3.13;;
59169;SDS011;52474;52.236;5.114;2023-03-13T06:29:01;10.63;;;3.70;;
59169;SDS011;52474;52.236;5.114;2023-03-13T06:31:27;10.85;;;3.22;;
59169;SDS011;52474;52.236;5.114;2023-03-13T06:33:53;10.57;;;3.97;;
59169;SDS011;52474;52.236;5.114;2023-03-13T06:36:20;12.88;;;3.78;;
59169;SDS011;52474;52.236;5.114;2023-03-13T06:38:47;14.02;;;4.40;;
59169;SDS011;52474;52.236;5.114;2023-03-13T06:41:13;11.63;;;4.30;;
59169;SDS011;52474;52.236;5.114;2023-03-13T06:43:39;7.70;;;3.90;;
59169;SDS011;52474;52.236;5.114;2023-03-13T06:46:06;10.10;;;3.63;;
59169;SDS011;52474;52.236;5.114;2023-03-13T06:48:33;9.45;;;4.00;;
59169;SDS011;52474;52.236;5.114;2023-03-13T06:50:59;10.55;;;3.78;;
59169;SDS011;52474;52.236;5.114;2023-03-13T06:53:25;8.98;;;4.30;;
59169;SDS011;52474;52.236;5.114;2023-03-13T06:55:50;11.98;;;4.03;;
59169;SDS011;52474;52.236;5.114;2023-03-13T06:58:16;13.00;;;4.03;;
59169;SDS011;52474;52.236;5.114;2023-03-13T07:00:43;10.18;;;5.10;;
59169;SDS011;52474;52.236;5.114;2023-03-13T07:03:09;13.63;;;5.07;;
59169;SDS011;52474;52.236;5.114;2023-03-13T07:05:35;14.45;;;4.00;;
59169;SDS011;52474;52.236;5.114;2023-03-13T07:08:03;9.23;;;4.15;;
59169;SDS011;52474;52.236;5.114;2023-03-13T07:10:43;10.73;;;4.47;;
59169;SDS011;52474;52.236;5.114;2023-03-13T07:13:12;15.32;;;4.90;;
59169;SDS011;52474;52.236;5.114;2023-03-13T07:15:38;12.10;;;5.35;;
59169;SDS011;52474;52.236;5.114;2023-03-13T07:18:04;10.73;;;5.15;;
59169;SDS011;52474;52.236;5.114;2023-03-13T07:20:30;13.88;;;5.18;;
59169;SDS011;52474;52.236;5.114;2023-03-13T07:22:56;12.80;;;4.85;;
59169;SDS011;52474;52.236;5.114;2023-03-13T07:25:21;11.18;;;5.18;;
59169;SDS011;52474;52.236;5.114;2023-03-13T07:27:49;11.50;;;4.63;;
59169;SDS011;52474;52.236;5.114;2023-03-13T07:30:16;13.17;;;4.67;;
59169;SDS011;52474;52.236;5.114;2023-03-13T07:32:42;10.05;;;5.00;;
59169;SDS011;52474;52.236;5.114;2023-03-13T07:35:08;10.25;;;5.22;;
59169;SDS011;52474;52.236;5.114;2023-03-13T07:37:34;9.75;;;4.85;;
59169;SDS011;52474;52.236;5.114;2023-03-13T07:40:00;15.45;;;4.93;;
59169;SDS011;52474;52.236;5.114;2023-03-13T07:42:25;10.77;;;4.80;;
59169;SDS011;52474;52.236;5.114;2023-03-13T07:44:52;12.68;;;5.10;;
59169;SDS011;52474;52.236;5.114;2023-03-13T07:47:17;11.70;;;5.20;;
59169;SDS011;52474;52.236;5.114;2023-03-13T07:49:43;8.75;;;4.75;;
59169;SDS011;52474;52.236;5.114;2023-03-13T07:52:11;10.57;;;5.25;;
59169;SDS011;52474;52.236;5.114;2023-03-13T07:54:37;11.60;;;4.43;;
59169;SDS011;52474;52.236;5.114;2023-03-13T07:57:02;12.38;;;5.30;;
59169;SDS011;52474;52.236;5.114;2023-03-13T07:59:28;8.93;;;4.90;;
59169;SDS011;52474;52.236;5.114;2023-03-13T08:01:54;11.50;;;4.40;;
59169;SDS011;52474;52.236;5.114;2023-03-13T08:04:20;12.63;;;5.22;;
59169;SDS011;52474;52.236;5.114;2023-03-13T08:06:46;10.80;;;4.80;;
59169;SDS011;52474;52.236;5.114;2023-03-13T08:09:12;9.82;;;4.50;;
59169;SDS011;52474;52.236;5.114;2023-03-13T08:11:38;13.00;;;5.28;;
59169;SDS011;52474;52.236;5.114;2023-03-13T08:14:05;7.65;;;4.05;;
59169;SDS011;52474;52.236;5.114;2023-03-13T08:16:32;11.05;;;4.97;;
59169;SDS011;52474;52.236;5.114;2023-03-13T08:18:59;9.77;;;4.00;;
59169;SDS011;52474;52.236;5.114;2023-03-13T08:21:26;9.65;;;4.00;;
59169;SDS011;52474;52.236;5.114;2023-03-13T08:23:54;9.02;;;3.60;;
59169;SDS011;52474;52.236;5.114;2023-03-13T08:26:23;12.90;;;4.75;;
59169;SDS011;52474;52.236;5.114;2023-03-13T08:28:52;11.73;;;3.70;;
59169;SDS011;52474;52.236;5.114;2023-03-13T08:31:23;9.10;;;3.75;;
59169;SDS011;52474;52.236;5.114;2023-03-13T08:33:51;9.65;;;2.88;;
59169;SDS011;52474;52.236;5.114;2023-03-13T08:36:19;5.70;;;3.33;;
59169;SDS011;52474;52.236;5.114;2023-03-13T08:38:48;8.93;;;3.63;;
59169;SDS011;52474;52.236;5.114;2023-03-13T08:41:15;7.10;;;3.72;;
59169;SDS011;52474;52.236;5.114;2023-03-13T08:43:45;7.95;;;3.50;;
59169;SDS011;52474;52.236;5.114;2023-03-13T08:46:12;10.63;;;3.50;;
59169;SDS011;52474;52.236;5.114;2023-03-13T08:48:38;12.20;;;3.47;;
59169;SDS011;52474;52.236;5.114;2023-03-13T08:53:32;8.45;;;2.65;;
59169;SDS011;52474;52.236;5.114;2023-03-13T08:55:59;9.57;;;3.38;;
59169;SDS011;52474;52.236;5.114;2023-03-13T08:58:25;6.03;;;2.80;;
59169;SDS011;52474;52.236;5.114;2023-03-13T09:00:52;6.72;;;2.70;;
59169;SDS011;52474;52.236;5.114;2023-03-13T09:03:17;9.18;;;2.35;;
59169;SDS011;52474;52.236;5.114;2023-03-13T09:05:43;10.73;;;2.90;;
59169;SDS011;52474;52.236;5.114;2023-03-13T09:08:12;7.88;;;2.88;;
59169;SDS011;52474;52.236;5.114;2023-03-13T09:10:40;6.65;;;2.28;;
59169;SDS011;52474;52.236;5.114;2023-03-13T09:13:08;7.90;;;2.55;;
59169;SDS011;52474;52.236;5.114;2023-03-13T09:15:34;9.70;;;2.20;;
59169;SDS011;52474;52.236;5.114;2023-03-13T09:18:00;7.85;;;2.00;;
59169;SDS011;52474;52.236;5.114;2023-03-13T09:20:26;8.77;;;2.30;;
59169;SDS011;52474;52.236;5.114;2023-03-13T09:22:51;5.60;;;2.42;;
59169;SDS011;52474;52.236;5.114;2023-03-13T09:25:17;7.13;;;2.20;;
59169;SDS011;52474;52.236;5.114;2023-03-13T09:27:43;8.02;;;1.92;;
59169;SDS011;52474;52.236;5.114;2023-03-13T09:30:11;9.13;;;2.10;;
59169;SDS011;52474;52.236;5.114;2023-03-13T09:32:37;12.98;;;2.63;;
59169;SDS011;52474;52.236;5.114;2023-03-13T09:35:03;8.32;;;1.73;;
59169;SDS011;52474;52.236;5.114;2023-03-13T09:37:29;10.18;;;2.13;;
59169;SDS011;52474;52.236;5.114;2023-03-13T09:39:54;10.82;;;2.55;;
59169;SDS011;52474;52.236;5.114;2023-03-13T09:42:34;11.68;;;2.25;;
59169;SDS011;52474;52.236;5.114;2023-03-13T09:45:15;5.57;;;1.88;;
59169;SDS011;52474;52.236;5.114;2023-03-13T09:47:55;9.10;;;2.03;;
59169;SDS011;52474;52.236;5.114;2023-03-13T09:50:28;8.15;;;2.10;;
59169;SDS011;52474;52.236;5.114;2023-03-13T09:53:02;7.30;;;1.90;;
59169;SDS011;52474;52.236;5.114;2023-03-13T09:55:37;7.05;;;2.10;;
59169;SDS011;52474;52.236;5.114;2023-03-13T09:58:20;7.03;;;1.67;;
59169;SDS011;52474;52.236;5.114;2023-03-13T10:01:02;7.32;;;1.60;;
59169;SDS011;52474;52.236;5.114;2023-03-13T10:03:30;9.52;;;1.88;;
59169;SDS011;52474;52.236;5.114;2023-03-13T10:06:04;8.63;;;2.10;;
59169;SDS011;52474;52.236;5.114;2023-03-13T10:08:37;6.22;;;1.83;;
59169;SDS011;52474;52.236;5.114;2023-03-13T10:11:04;4.82;;;1.45;;
59169;SDS011;52474;52.236;5.114;2023-03-13T10:19:13;6.38;;;1.30;;
59169;SDS011;52474;52.236;5.114;2023-03-13T10:21:42;10.40;;;1.73;;
59169;SDS011;52474;52.236;5.114;2023-03-13T10:24:25;6.43;;;1.60;;
59169;SDS011;52474;52.236;5.114;2023-03-13T10:26:57;5.18;;;1.50;;
59169;SDS011;52474;52.236;5.114;2023-03-13T10:29:24;3.92;;;1.30;;
59169;SDS011;52474;52.236;5.114;2023-03-13T10:31:58;3.42;;;1.30;;
59169;SDS011;52474;52.236;5.114;2023-03-13T10:34:27;2.83;;;1.40;;
59169;SDS011;52474;52.236;5.114;2023-03-13T10:37:14;2.75;;;1.52;;
59169;SDS011;52474;52.236;5.114;2023-03-13T10:39:44;2.25;;;1.02;;
59169;SDS011;52474;52.236;5.114;2023-03-13T10:44:43;5.63;;;1.88;;
59169;SDS011;52474;52.236;5.114;2023-03-13T10:47:10;3.30;;;1.45;;
59169;SDS011;52474;52.236;5.114;2023-03-13T10:49:59;4.15;;;1.70;;
59169;SDS011;52474;52.236;5.114;2023-03-13T10:52:29;3.67;;;1.58;;
59169;SDS011;52474;52.236;5.114;2023-03-13T10:55:15;8.05;;;2.03;;
59169;SDS011;52474;52.236;5.114;2023-03-13T10:58:04;2.63;;;1.10;;
59169;SDS011;52474;52.236;5.114;2023-03-13T11:00:40;4.95;;;1.55;;
59169;SDS011;52474;52.236;5.114;2023-03-13T11:08:27;3.55;;;1.35;;
59169;SDS011;52474;52.236;5.114;2023-03-13T11:10:59;4.32;;;3.08;;
59169;SDS011;52474;52.236;5.114;2023-03-13T11:13:32;5.07;;;1.48;;
59169;SDS011;52474;52.236;5.114;2023-03-13T11:21:41;6.15;;;1.60;;
59169;SDS011;52474;52.236;5.114;2023-03-13T11:24:29;6.05;;;1.77;;
59169;SDS011;52474;52.236;5.114;2023-03-13T11:27:14;4.07;;;1.45;;
59169;SDS011;52474;52.236;5.114;2023-03-13T11:32:50;5.90;;;1.60;;
59169;SDS011;52474;52.236;5.114;2023-03-13T11:35:45;8.70;;;1.80;;
59169;SDS011;52474;52.236;5.114;2023-03-13T11:38:26;8.90;;;1.83;;
59169;SDS011;52474;52.236;5.114;2023-03-13T11:44:15;5.72;;;1.67;;
59169;SDS011;52474;52.236;5.114;2023-03-13T11:47:16;4.75;;;1.40;;
59169;SDS011;52474;52.236;5.114;2023-03-13T11:49:58;5.70;;;1.38;;
59169;SDS011;52474;52.236;5.114;2023-03-13T11:58:19;7.95;;;1.60;;
59169;SDS011;52474;52.236;5.114;2023-03-13T12:04:12;8.57;;;1.63;;
59169;SDS011;52474;52.236;5.114;2023-03-13T12:06:40;11.32;;;2.45;;
59169;SDS011;52474;52.236;5.114;2023-03-13T12:09:15;11.65;;;1.95;;
59169;SDS011;52474;52.236;5.114;2023-03-13T12:14:29;7.88;;;2.00;;
59169;SDS011;52474;52.236;5.114;2023-03-13T12:17:03;13.18;;;2.22;;
59169;SDS011;52474;52.236;5.114;2023-03-13T12:19:49;11.45;;;1.85;;
59169;SDS011;52474;52.236;5.114;2023-03-13T12:22:37;7.35;;;1.98;;
59169;SDS011;52474;52.236;5.114;2023-03-13T12:25:12;10.02;;;2.40;;
59169;SDS011;52474;52.236;5.114;2023-03-13T12:27:53;13.52;;;2.05;;
59169;SDS011;52474;52.236;5.114;2023-03-13T12:30:48;8.77;;;1.77;;
59169;SDS011;52474;52.236;5.114;2023-03-13T12:33:33;11.65;;;2.00;;
59169;SDS011;52474;52.236;5.114;2023-03-13T12:43:55;11.77;;;2.58;;
59169;SDS011;52474;52.236;5.114;2023-03-13T12:46:35;14.63;;;2.50;;
59169;SDS011;52474;52.236;5.114;2023-03-13T12:49:19;10.65;;;2.55;;
59169;SDS011;52474;52.236;5.114;2023-03-13T12:59:53;16.20;;;2.85;;
59169;SDS011;52474;52.236;5.114;2023-03-13T13:02:26;10.98;;;2.28;;
59169;SDS011;52474;52.236;5.114;2023-03-13T13:04:54;9.15;;;2.47;;
59169;SDS011;52474;52.236;5.114;2023-03-13T13:07:32;10.27;;;2.20;;
59169;SDS011;52474;52.236;5.114;2023-03-13T13:12:39;10.30;;;2.60;;
59169;SDS011;52474;52.236;5.114;2023-03-13T13:17:53;15.13;;;2.47;;
59169;SDS011;52474;52.236;5.114;2023-03-13T13:20:39;12.23;;;2.90;;
59169;SDS011;52474;52.236;5.114;2023-03-13T13:23:21;14.85;;;2.90;;
59169;SDS011;52474;52.236;5.114;2023-03-13T13:25:52;15.10;;;3.13;;
59169;SDS011;52474;52.236;5.114;2023-03-13T13:28:24;10.13;;;3.53;;
59169;SDS011;52474;52.236;5.114;2023-03-13T13:30:56;14.32;;;2.83;;
59169;SDS011;52474;52.236;5.114;2023-03-13T13:38:51;12.60;;;2.55;;
59169;SDS011;52474;52.236;5.114;2023-03-13T13:43:43;13.68;;;4.18;;
59169;SDS011;52474;52.236;5.114;2023-03-13T13:46:21;9.80;;;2.25;;
59169;SDS011;52474;52.236;5.114;2023-03-13T13:51:31;16.73;;;3.25;;
59169;SDS011;52474;52.236;5.114;2023-03-13T13:57:06;11.27;;;2.60;;
59169;SDS011;52474;52.236;5.114;2023-03-13T13:59:41;11.25;;;2.60;;
59169;SDS011;52474;52.236;5.114;2023-03-13T14:02:28;14.15;;;2.75;;
59169;SDS011;52474;52.236;5.114;2023-03-13T14:12:58;10.77;;;2.50;;
59169;SDS011;52474;52.236;5.114;2023-03-13T14:15:27;14.60;;;2.67;;
59169;SDS011;52474;52.236;5.114;2023-03-13T14:17:58;16.95;;;3.08;;
59169;SDS011;52474;52.236;5.114;2023-03-13T14:20:35;19.02;;;2.80;;
59169;SDS011;52474;52.236;5.114;2023-03-13T14:23:04;14.52;;;2.92;;
59169;SDS011;52474;52.236;5.114;2023-03-13T14:25:48;16.27;;;2.58;;
59169;SDS011;52474;52.236;5.114;2023-03-13T14:28:16;16.35;;;3.22;;
59169;SDS011;52474;52.236;5.114;2023-03-13T14:30:51;16.20;;;3.10;;
59169;SDS011;52474;52.236;5.114;2023-03-13T14:33:23;13.30;;;2.72;;
59169;SDS011;52474;52.236;5.114;2023-03-13T14:35:53;18.63;;;3.45;;
59169;SDS011;52474;52.236;5.114;2023-03-13T14:38:23;14.23;;;3.10;;
59169;SDS011;52474;52.236;5.114;2023-03-13T14:40:50;10.93;;;2.85;;
59169;SDS011;52474;52.236;5.114;2023-03-13T14:45:45;15.55;;;2.95;;
59169;SDS011;52474;52.236;5.114;2023-03-13T14:48:18;22.50;;;3.60;;
59169;SDS011;52474;52.236;5.114;2023-03-13T14:50:48;18.15;;;3.25;;
59169;SDS011;52474;52.236;5.114;2023-03-13T14:53:16;17.30;;;3.53;;
59169;SDS011;52474;52.236;5.114;2023-03-13T14:55:44;15.77;;;2.58;;
59169;SDS011;52474;52.236;5.114;2023-03-13T15:00:43;13.60;;;2.92;;
59169;SDS011;52474;52.236;5.114;2023-03-13T15:06:24;13.32;;;2.72;;
59169;SDS011;52474;52.236;5.114;2023-03-13T15:08:40;15.90;;;3.05;;
59169;SDS011;52474;52.236;5.114;2023-03-13T15:13:48;13.07;;;2.28;;
59169;SDS011;52474;52.236;5.114;2023-03-13T15:16:15;18.48;;;3.03;;
59169;SDS011;52474;52.236;5.114;2023-03-13T15:18:44;15.38;;;2.63;;
59169;SDS011;52474;52.236;5.114;2023-03-13T15:23:45;16.23;;;2.72;;
59169;SDS011;52474;52.236;5.114;2023-03-13T15:26:14;16.23;;;3.38;;
59169;SDS011;52474;52.236;5.114;2023-03-13T15:28:40;17.05;;;2.83;;
59169;SDS011;52474;52.236;5.114;2023-03-13T15:31:06;14.57;;;2.70;;
59169;SDS011;52474;52.236;5.114;2023-03-13T15:33:31;18.30;;;3.05;;
59169;SDS011;52474;52.236;5.114;2023-03-13T15:35:58;21.63;;;3.25;;
59169;SDS011;52474;52.236;5.114;2023-03-13T15:38:27;16.10;;;2.75;;
59169;SDS011;52474;52.236;5.114;2023-03-13T15:40:54;14.25;;;2.60;;
59169;SDS011;52474;52.236;5.114;2023-03-13T15:43:20;17.33;;;3.65;;
59169;SDS011;52474;52.236;5.114;2023-03-13T15:45:47;16.77;;;2.78;;
59169;SDS011;52474;52.236;5.114;2023-03-13T15:48:17;15.25;;;3.08;;
59169;SDS011;52474;52.236;5.114;2023-03-13T15:50:48;15.85;;;3.25;;
59169;SDS011;52474;52.236;5.114;2023-03-13T15:53:16;14.65;;;2.22;;
59169;SDS011;52474;52.236;5.114;2023-03-13T15:55:43;15.38;;;2.80;;
59169;SDS011;52474;52.236;5.114;2023-03-13T15:58:13;23.50;;;3.03;;
59169;SDS011;52474;52.236;5.114;2023-03-13T16:00:41;14.20;;;2.15;;
59169;SDS011;52474;52.236;5.114;2023-03-13T16:03:43;14.68;;;2.75;;
59169;SDS011;52474;52.236;5.114;2023-03-13T16:06:05;23.50;;;3.92;;
59169;SDS011;52474;52.236;5.114;2023-03-13T16:08:43;17.77;;;3.13;;
59169;SDS011;52474;52.236;5.114;2023-03-13T16:11:13;21.57;;;4.03;;
59169;SDS011;52474;52.236;5.114;2023-03-13T16:13:40;21.77;;;4.47;;
59169;SDS011;52474;52.236;5.114;2023-03-13T16:16:25;20.42;;;3.33;;
59169;SDS011;52474;52.236;5.114;2023-03-13T16:18:54;17.63;;;2.97;;
59169;SDS011;52474;52.236;5.114;2023-03-13T16:21:25;14.32;;;2.38;;
59169;SDS011;52474;52.236;5.114;2023-03-13T16:23:53;11.60;;;2.47;;
59169;SDS011;52474;52.236;5.114;2023-03-13T16:26:24;23.10;;;3.45;;
59169;SDS011;52474;52.236;5.114;2023-03-13T16:28:52;13.13;;;2.42;;
59169;SDS011;52474;52.236;5.114;2023-03-13T16:31:20;18.05;;;3.78;;
59169;SDS011;52474;52.236;5.114;2023-03-13T16:33:48;25.85;;;3.35;;
59169;SDS011;52474;52.236;5.114;2023-03-13T16:36:22;19.58;;;4.15;;
59169;SDS011;52474;52.236;5.114;2023-03-13T16:38:50;15.05;;;3.40;;
59169;SDS011;52474;52.236;5.114;2023-03-13T16:41:18;20.50;;;2.95;;
59169;SDS011;52474;52.236;5.114;2023-03-13T16:43:45;18.27;;;3.58;;
59169;SDS011;52474;52.236;5.114;2023-03-13T16:46:17;16.33;;;3.17;;
59169;SDS011;52474;52.236;5.114;2023-03-13T16:48:48;15.32;;;2.83;;
59169;SDS011;52474;52.236;5.114;2023-03-13T16:51:16;19.50;;;4.05;;
59169;SDS011;52474;52.236;5.114;2023-03-13T16:53:47;14.15;;;3.03;;
59169;SDS011;52474;52.236;5.114;2023-03-13T16:56:40;26.38;;;3.88;;
59169;SDS011;52474;52.236;5.114;2023-03-13T16:59:15;18.20;;;3.53;;
59169;SDS011;52474;52.236;5.114;2023-03-13T17:01:46;22.95;;;3.03;;
59169;SDS011;52474;52.236;5.114;2023-03-13T17:04:12;22.80;;;3.42;;
59169;SDS011;52474;52.236;5.114;2023-03-13T17:06:39;24.90;;;3.97;;
59169;SDS011;52474;52.236;5.114;2023-03-13T17:09:11;16.88;;;2.65;;